Time;durP1;ratioP1;P1;durP2;ratioP2;P2;SDS_P1;SDS_P2;PMS_P1;PMS_P2;Temp;Humidity;BMP_temperature;BMP_pressure;BME280_temperature;BME280_humidity;BME280_pressure;Samples;Min_cycle;Max_cycle;Signal;HPM_P1;HPM_P2
2022/01/02 00:01:40;;;;;;;10.90;5.85;;;;;;;;;;5112534;27;20382;-71
2022/01/02 00:04:07;;;;;;;12.57;6.88;;;;;;;;;;5129465;27;20030;-72
2022/01/02 00:06:34;;;;;;;9.88;5.50;;;;;;;;;;5129408;27;20404;-73
2022/01/02 00:09:04;;;;;;;13.25;7.57;;;;;;;;;;5129573;27;20390;-73
2022/01/02 00:11:31;;;;;;;8.90;4.63;;;;;;;;;;5131104;27;20033;-73
2022/01/02 00:14:05;;;;;;;9.90;4.13;;;;;;;;;;5113997;27;20401;-74
2022/01/02 00:16:31;;;;;;;6.70;4.07;;;;;;;;;;5130513;27;20019;-74
2022/01/02 00:19:08;;;;;;;7.53;4.25;;;;;;;;;;5129561;27;20023;-73
2022/01/02 00:21:44;;;;;;;8.13;4.60;;;;;;;;;;5129592;27;20023;-73
2022/01/02 00:24:14;;;;;;;6.47;4.38;;;;;;;;;;5129384;27;20029;-74
2022/01/02 00:26:45;;;;;;;7.35;4.35;;;;;;;;;;5113633;27;20031;-73
2022/01/02 00:29:12;;;;;;;7.00;4.28;;;;;;;;;;5132806;27;20011;-72
2022/01/02 00:31:39;;;;;;;6.95;4.32;;;;;;;;;;5130265;27;20027;-73
2022/01/02 00:34:06;;;;;;;6.07;4.05;;;;;;;;;;5128971;27;20027;-72
2022/01/02 00:36:33;;;;;;;5.63;3.78;;;;;;;;;;5128940;27;20035;-73
2022/01/02 00:39:00;;;;;;;9.07;4.22;;;;;;;;;;5129038;27;20504;-73
2022/01/02 00:41:28;;;;;;;8.23;4.43;;;;;;;;;;5131236;27;20388;-73
2022/01/02 00:44:23;;;;;;;7.72;4.07;;;;;;;;;;5130960;27;20019;-73
2022/01/02 00:47:00;;;;;;;6.85;3.75;;;;;;;;;;5047157;28;20053;-73
2022/01/02 00:49:27;;;;;;;6.10;3.90;;;;;;;;;;5048315;28;20594;-73
2022/01/02 00:52:16;;;;;;;6.13;3.35;;;;;;;;;;5048926;28;20281;-73
2022/01/02 00:54:44;;;;;;;4.93;3.17;;;;;;;;;;5041468;28;20054;-73
2022/01/02 00:57:14;;;;;;;5.25;3.30;;;;;;;;;;5029657;28;20045;-73
2022/01/02 00:59:58;;;;;;;5.50;3.72;;;;;;;;;;5033516;28;20399;-73
2022/01/02 01:02:28;;;;;;;6.50;3.53;;;;;;;;;;5046999;28;20044;-73
2022/01/02 01:04:56;;;;;;;8.07;4.00;;;;;;;;;;5049535;28;20037;-73
2022/01/02 01:07:23;;;;;;;5.95;3.47;;;;;;;;;;5048258;28;20041;-74
2022/01/02 01:09:51;;;;;;;8.40;3.58;;;;;;;;;;5049019;28;20047;-73
2022/01/02 01:12:18;;;;;;;5.53;3.28;;;;;;;;;;5029395;28;20029;-73
2022/01/02 01:14:46;;;;;;;4.88;3.30;;;;;;;;;;5048767;28;20031;-73
2022/01/02 01:17:14;;;;;;;5.10;3.00;;;;;;;;;;5049110;28;20028;-74
2022/01/02 01:19:41;;;;;;;5.43;3.25;;;;;;;;;;5049467;28;20037;-73
2022/01/02 01:22:08;;;;;;;5.57;3.17;;;;;;;;;;5052573;28;20037;-73
2022/01/02 01:24:36;;;;;;;8.48;4.18;;;;;;;;;;5128636;28;20020;-73
2022/01/02 01:27:08;;;;;;;8.32;3.40;;;;;;;;;;5128997;28;20031;-73
2022/01/02 01:29:35;;;;;;;6.05;3.67;;;;;;;;;;5129426;28;20366;-74
2022/01/02 01:32:03;;;;;;;6.50;3.60;;;;;;;;;;5131856;28;20023;-73
2022/01/02 01:34:29;;;;;;;6.93;3.28;;;;;;;;;;5130077;28;20485;-73
2022/01/02 01:36:56;;;;;;;10.05;3.95;;;;;;;;;;5128331;28;20027;-73
2022/01/02 01:39:22;;;;;;;7.63;3.33;;;;;;;;;;5128537;28;20040;-73
2022/01/02 01:41:49;;;;;;;6.30;3.60;;;;;;;;;;5110790;28;20032;-73
2022/01/02 01:46:47;;;;;;;7.13;3.47;;;;;;;;;;5129671;28;20081;-73
2022/01/02 01:49:15;;;;;;;6.15;3.38;;;;;;;;;;5128288;28;20039;-73
2022/01/02 01:51:41;;;;;;;6.63;3.53;;;;;;;;;;5128185;28;20015;-73
2022/01/02 01:54:08;;;;;;;5.85;3.75;;;;;;;;;;5128597;28;20092;-73
2022/01/02 01:56:37;;;;;;;6.78;4.05;;;;;;;;;;5110651;28;20510;-73
2022/01/02 01:59:03;;;;;;;6.57;4.35;;;;;;;;;;5132201;27;20023;-73
2022/01/02 02:01:29;;;;;;;7.15;4.35;;;;;;;;;;5132303;27;20477;-73
2022/01/02 02:03:57;;;;;;;10.77;4.72;;;;;;;;;;5132200;27;20042;-73
2022/01/02 02:06:23;;;;;;;7.22;4.45;;;;;;;;;;5131807;27;20049;-73
2022/01/02 02:08:53;;;;;;;7.43;4.22;;;;;;;;;;5132001;27;20470;-73
2022/01/02 02:11:21;;;;;;;7.00;4.18;;;;;;;;;;5134404;27;20015;-74
2022/01/02 02:13:47;;;;;;;5.78;3.83;;;;;;;;;;5135385;27;20023;-74
2022/01/02 02:16:13;;;;;;;10.98;4.40;;;;;;;;;;5131954;27;20031;-73
2022/01/02 02:18:40;;;;;;;10.05;3.83;;;;;;;;;;5131425;27;20489;-74
2022/01/02 02:21:06;;;;;;;7.47;3.72;;;;;;;;;;5132383;27;20033;-73
2022/01/02 02:23:33;;;;;;;6.20;3.95;;;;;;;;;;5132968;27;20015;-73
2022/01/02 02:25:59;;;;;;;6.43;3.45;;;;;;;;;;5134624;27;20023;-73
2022/01/02 02:28:27;;;;;;;7.38;3.75;;;;;;;;;;5131539;27;20477;-73
2022/01/02 02:30:54;;;;;;;7.03;3.58;;;;;;;;;;5131518;27;20478;-73
2022/01/02 02:33:21;;;;;;;5.80;2.92;;;;;;;;;;5131101;27;20031;-73
2022/01/02 02:35:48;;;;;;;5.25;3.40;;;;;;;;;;5131843;27;20016;-73
2022/01/02 02:38:16;;;;;;;4.03;2.88;;;;;;;;;;5134315;27;20029;-73
2022/01/02 02:40:43;;;;;;;5.53;3.22;;;;;;;;;;5134078;27;20044;-74
2022/01/02 02:43:33;;;;;;;5.70;3.33;;;;;;;;;;5113205;27;20037;-73
2022/01/02 02:49:02;;;;;;;6.85;4.10;;;;;;;;;;5130411;27;20670;-74
2022/01/02 02:51:40;;;;;;;7.68;3.80;;;;;;;;;;5132788;27;20015;-73
2022/01/02 02:54:07;;;;;;;5.78;3.80;;;;;;;;;;5131535;27;20020;-73
2022/01/02 02:56:45;;;;;;;6.72;4.00;;;;;;;;;;5113846;27;20028;-74
2022/01/02 02:59:12;;;;;;;5.70;3.38;;;;;;;;;;5130858;27;20027;-73
2022/01/02 03:01:39;;;;;;;5.95;3.70;;;;;;;;;;5132099;27;20029;-74
2022/01/02 03:04:05;;;;;;;6.03;3.60;;;;;;;;;;5130582;27;20031;-73
2022/01/02 03:06:32;;;;;;;8.27;3.53;;;;;;;;;;5130692;27;20036;-73
2022/01/02 03:09:06;;;;;;;5.60;3.53;;;;;;;;;;5130854;27;20020;-73
2022/01/02 03:11:33;;;;;;;10.27;3.92;;;;;;;;;;5131445;27;20028;-73
2022/01/02 03:13:59;;;;;;;5.82;3.30;;;;;;;;;;5133631;27;20023;-73
2022/01/02 03:16:26;;;;;;;5.80;3.20;;;;;;;;;;5130740;27;20075;-73
2022/01/02 03:18:54;;;;;;;5.15;3.15;;;;;;;;;;5112237;27;20355;-73
2022/01/02 03:21:21;;;;;;;5.32;3.30;;;;;;;;;;5130723;27;20023;-73
2022/01/02 03:23:47;;;;;;;6.57;4.10;;;;;;;;;;5130950;27;20028;-73
2022/01/02 03:26:14;;;;;;;6.40;3.70;;;;;;;;;;5115452;27;20042;-74
2022/01/02 03:28:40;;;;;;;7.00;3.67;;;;;;;;;;5131595;27;20026;-74
2022/01/02 03:31:07;;;;;;;7.53;3.67;;;;;;;;;;5131633;27;20020;-73
2022/01/02 03:33:33;;;;;;;9.10;3.55;;;;;;;;;;5130587;27;20023;-73
2022/01/02 03:36:00;;;;;;;6.78;3.55;;;;;;;;;;5130719;27;20026;-73
2022/01/02 03:38:27;;;;;;;6.25;3.20;;;;;;;;;;5132466;27;20024;-73
2022/01/02 03:40:53;;;;;;;5.30;3.53;;;;;;;;;;5132329;27;20039;-73
2022/01/02 03:43:19;;;;;;;7.75;3.60;;;;;;;;;;5112134;27;20489;-73
2022/01/02 03:45:46;;;;;;;6.13;3.75;;;;;;;;;;5129861;27;20035;-73
2022/01/02 03:48:12;;;;;;;5.93;3.55;;;;;;;;;;5130441;27;20023;-73
2022/01/02 03:50:38;;;;;;;4.97;3.20;;;;;;;;;;5112561;27;20027;-73
2022/01/02 03:53:05;;;;;;;4.00;2.80;;;;;;;;;;5129447;27;20023;-73
2022/01/02 03:55:32;;;;;;;6.80;2.78;;;;;;;;;;5130220;27;20035;-73
2022/01/02 03:57:58;;;;;;;4.40;2.58;;;;;;;;;;5130269;27;20030;-73
2022/01/02 04:00:24;;;;;;;3.78;2.25;;;;;;;;;;5129503;27;20028;-73
2022/01/02 04:02:51;;;;;;;4.32;2.67;;;;;;;;;;5130194;27;20020;-73
2022/01/02 04:05:17;;;;;;;5.30;2.72;;;;;;;;;;5132122;27;20027;-73
2022/01/02 04:07:44;;;;;;;5.63;2.90;;;;;;;;;;5130994;27;20045;-73
2022/01/02 04:10:15;;;;;;;5.60;3.28;;;;;;;;;;5131448;27;20127;-73
2022/01/02 04:12:45;;;;;;;3.83;2.42;;;;;;;;;;5129826;27;20025;-73
2022/01/02 04:15:12;;;;;;;5.20;2.58;;;;;;;;;;5129668;27;20034;-74
2022/01/02 04:17:39;;;;;;;4.10;2.63;;;;;;;;;;5096058;27;20023;-73
2022/01/02 04:20:07;;;;;;;3.20;2.25;;;;;;;;;;5128999;27;20039;-73
2022/01/02 04:22:33;;;;;;;3.55;2.38;;;;;;;;;;5129773;27;20027;-73
2022/01/02 04:24:59;;;;;;;4.47;2.28;;;;;;;;;;5129569;27;20030;-73
2022/01/02 04:27:26;;;;;;;4.85;2.33;;;;;;;;;;5129216;27;20051;-73
2022/01/02 04:29:52;;;;;;;3.58;2.22;;;;;;;;;;5129545;27;20064;-73
2022/01/02 04:32:19;;;;;;;5.30;2.50;;;;;;;;;;5132063;27;20053;-73
2022/01/02 04:34:46;;;;;;;3.53;2.35;;;;;;;;;;5130776;27;20045;-73
2022/01/02 04:37:12;;;;;;;5.75;2.40;;;;;;;;;;5129415;27;20099;-73
2022/01/02 04:39:39;;;;;;;7.05;2.40;;;;;;;;;;5129795;27;20026;-73
2022/01/02 04:42:06;;;;;;;3.63;2.10;;;;;;;;;;5129690;27;20499;-73
2022/01/02 04:44:32;;;;;;;3.97;2.22;;;;;;;;;;5130114;27;20032;-73
2022/01/02 04:46:59;;;;;;;3.63;2.30;;;;;;;;;;5131645;27;20051;-73
2022/01/02 04:49:25;;;;;;;5.85;2.33;;;;;;;;;;5115995;27;20016;-74
2022/01/02 04:51:53;;;;;;;4.55;2.50;;;;;;;;;;5113834;27;20038;-73
2022/01/02 04:54:20;;;;;;;3.88;2.50;;;;;;;;;;5113623;27;20019;-73
2022/01/02 04:56:47;;;;;;;5.93;2.75;;;;;;;;;;5110012;28;20036;-73
2022/01/02 04:59:13;;;;;;;5.18;2.65;;;;;;;;;;5114597;28;20027;-72
2022/01/02 05:01:39;;;;;;;3.80;2.55;;;;;;;;;;5114244;27;20034;-73
2022/01/02 05:04:06;;;;;;;5.72;2.83;;;;;;;;;;5113735;28;20033;-73
2022/01/02 05:06:32;;;;;;;4.28;2.65;;;;;;;;;;5113104;28;20050;-73
2022/01/02 05:08:59;;;;;;;7.45;2.85;;;;;;;;;;5111479;28;20020;-73
2022/01/02 05:11:25;;;;;;;3.75;2.17;;;;;;;;;;5112425;28;20027;-73
2022/01/02 05:13:51;;;;;;;3.75;2.40;;;;;;;;;;5114403;28;20030;-73
2022/01/02 05:16:18;;;;;;;3.88;2.03;;;;;;;;;;5113213;28;20023;-73
2022/01/02 05:18:44;;;;;;;3.83;2.50;;;;;;;;;;5107342;28;20012;-73
2022/01/02 05:21:10;;;;;;;6.88;2.50;;;;;;;;;;5112973;28;20029;-73
2022/01/02 05:23:37;;;;;;;3.55;2.30;;;;;;;;;;5109222;28;20546;-73
2022/01/02 05:26:03;;;;;;;6.13;2.53;;;;;;;;;;5098036;28;20035;-73
2022/01/02 05:28:29;;;;;;;3.38;2.30;;;;;;;;;;5108318;28;20038;-73
2022/01/02 05:30:56;;;;;;;3.65;2.05;;;;;;;;;;5113141;28;20028;-73
2022/01/02 05:33:22;;;;;;;3.08;2.08;;;;;;;;;;5113288;28;20397;-73
2022/01/02 05:35:48;;;;;;;4.13;2.50;;;;;;;;;;5113266;27;20013;-73
2022/01/02 05:38:15;;;;;;;3.78;2.28;;;;;;;;;;5118640;27;20027;-73
2022/01/02 05:40:42;;;;;;;2.78;1.88;;;;;;;;;;5119596;27;20023;-73
2022/01/02 05:43:08;;;;;;;3.45;2.40;;;;;;;;;;5110707;28;20022;-73
2022/01/02 05:45:35;;;;;;;4.15;2.70;;;;;;;;;;5116802;27;20020;-73
2022/01/02 05:48:05;;;;;;;3.78;2.20;;;;;;;;;;5093826;28;20408;-73
2022/01/02 05:50:32;;;;;;;4.10;2.58;;;;;;;;;;5113194;28;20030;-73
2022/01/02 05:52:58;;;;;;;3.47;2.13;;;;;;;;;;5114864;28;20030;-73
2022/01/02 05:55:24;;;;;;;3.15;2.35;;;;;;;;;;5112007;28;20031;-73
2022/01/02 05:57:51;;;;;;;5.72;2.53;;;;;;;;;;5111645;28;20400;-73
2022/01/02 06:00:17;;;;;;;5.75;2.55;;;;;;;;;;5111961;28;20022;-73
2022/01/02 06:02:43;;;;;;;5.38;2.30;;;;;;;;;;5112136;28;20030;-74
2022/01/02 06:05:10;;;;;;;3.38;2.22;;;;;;;;;;5115207;28;20470;-73
2022/01/02 06:07:36;;;;;;;3.90;1.98;;;;;;;;;;5113574;28;20039;-73
2022/01/02 06:10:06;;;;;;;5.57;2.08;;;;;;;;;;5111886;28;20023;-73
2022/01/02 06:12:32;;;;;;;4.75;2.40;;;;;;;;;;5111465;28;20032;-73
2022/01/02 06:14:58;;;;;;;3.67;2.50;;;;;;;;;;5093850;28;20012;-73
2022/01/02 06:17:25;;;;;;;4.18;2.40;;;;;;;;;;5113750;28;20057;-73
2022/01/02 06:19:51;;;;;;;4.82;2.35;;;;;;;;;;5113148;28;20084;-73
2022/01/02 06:22:17;;;;;;;3.10;2.05;;;;;;;;;;5111669;28;20035;-73
2022/01/02 06:24:44;;;;;;;4.35;2.47;;;;;;;;;;5111432;28;20011;-73
2022/01/02 06:27:10;;;;;;;4.15;2.28;;;;;;;;;;5111080;28;20036;-73
2022/01/02 06:29:36;;;;;;;5.30;2.40;;;;;;;;;;5111866;28;20496;-74
2022/01/02 06:32:03;;;;;;;3.65;2.67;;;;;;;;;;5114227;28;20409;-72
2022/01/02 06:34:30;;;;;;;5.32;3.30;;;;;;;;;;5111220;28;20496;-73
2022/01/02 06:36:56;;;;;;;9.50;3.15;;;;;;;;;;5110974;28;20024;-73
2022/01/02 06:39:22;;;;;;;5.88;2.97;;;;;;;;;;5110933;28;20583;-73
2022/01/02 06:41:51;;;;;;;5.30;2.78;;;;;;;;;;5110949;28;20073;-73
2022/01/02 06:44:17;;;;;;;6.20;2.90;;;;;;;;;;5113697;28;20022;-73
2022/01/02 06:46:44;;;;;;;4.88;2.60;;;;;;;;;;5124059;27;20047;-73
2022/01/02 06:49:10;;;;;;;8.02;3.40;;;;;;;;;;5119077;27;20024;-73
2022/01/02 06:51:37;;;;;;;4.90;2.92;;;;;;;;;;5115840;27;20516;-73
2022/01/02 06:54:03;;;;;;;4.63;2.90;;;;;;;;;;5113970;27;20374;-73
2022/01/02 06:56:29;;;;;;;5.85;3.10;;;;;;;;;;5113805;27;20485;-73
2022/01/02 06:58:56;;;;;;;7.95;3.40;;;;;;;;;;5117660;27;20020;-73
2022/01/02 07:01:22;;;;;;;5.68;3.88;;;;;;;;;;5115597;27;20032;-73
2022/01/02 07:03:48;;;;;;;12.35;5.25;;;;;;;;;;5115233;27;20396;-73
2022/01/02 07:06:15;;;;;;;28.67;13.52;;;;;;;;;;5115621;27;20031;-73
2022/01/02 07:08:41;;;;;;;34.25;14.77;;;;;;;;;;5109179;28;20428;-73
2022/01/02 07:11:08;;;;;;;28.27;13.02;;;;;;;;;;5118902;27;20015;-73
2022/01/02 07:13:35;;;;;;;18.58;8.15;;;;;;;;;;5115419;27;20030;-73
2022/01/02 07:16:01;;;;;;;29.55;14.15;;;;;;;;;;5115191;27;20038;-73
2022/01/02 07:18:27;;;;;;;20.23;10.30;;;;;;;;;;5114939;27;20400;-74
2022/01/02 07:20:54;;;;;;;19.77;9.73;;;;;;;;;;5112881;27;20020;-73
2022/01/02 07:23:20;;;;;;;11.68;7.28;;;;;;;;;;5114734;27;20547;-73
2022/01/02 07:25:46;;;;;;;12.75;7.50;;;;;;;;;;5117864;27;20068;-73
2022/01/02 07:28:13;;;;;;;16.17;9.60;;;;;;;;;;5114816;27;20536;-73
2022/01/02 07:30:39;;;;;;;14.10;8.13;;;;;;;;;;5114951;27;20266;-73
2022/01/02 07:33:05;;;;;;;14.65;8.15;;;;;;;;;;5109135;28;20545;-73
2022/01/02 07:35:32;;;;;;;14.40;8.35;;;;;;;;;;5128453;27;20088;-73
2022/01/02 07:37:58;;;;;;;15.80;7.13;;;;;;;;;;5116767;27;20026;-73
2022/01/02 07:40:25;;;;;;;16.42;8.45;;;;;;;;;;5114722;27;20023;-73
2022/01/02 07:42:52;;;;;;;12.82;6.70;;;;;;;;;;5114641;27;20022;-73
2022/01/02 07:45:18;;;;;;;13.35;8.82;;;;;;;;;;5114966;27;20029;-73
2022/01/02 07:47:46;;;;;;;13.82;8.93;;;;;;;;;;5109584;28;20048;-73
2022/01/02 07:50:12;;;;;;;12.90;8.38;;;;;;;;;;5113059;28;20024;-72
2022/01/02 07:52:38;;;;;;;13.40;5.90;;;;;;;;;;5110234;28;20496;-73
2022/01/02 07:55:05;;;;;;;11.43;6.32;;;;;;;;;;5091665;28;20027;-73
2022/01/02 07:57:32;;;;;;;13.95;6.00;;;;;;;;;;5109587;28;20089;-73
2022/01/02 07:59:58;;;;;;;17.27;6.38;;;;;;;;;;5110205;28;20016;-73
2022/01/02 08:02:24;;;;;;;16.60;6.47;;;;;;;;;;5111345;28;20023;-73
2022/01/02 08:04:51;;;;;;;273.50;97.53;;;;;;;;;;5113046;28;20020;-73
2022/01/02 08:07:17;;;;;;;101.63;37.38;;;;;;;;;;5109088;28;20072;-73
2022/01/02 08:09:43;;;;;;;71.03;26.85;;;;;;;;;;5109771;28;20028;-73
2022/01/02 08:12:09;;;;;;;46.75;19.60;;;;;;;;;;5109609;28;20034;-73
2022/01/02 08:14:36;;;;;;;51.67;25.02;;;;;;;;;;5091739;28;20034;-73
2022/01/02 08:17:02;;;;;;;46.40;22.02;;;;;;;;;;5112141;28;20035;-73
2022/01/02 08:19:29;;;;;;;31.27;13.80;;;;;;;;;;5109139;28;20030;-73
2022/01/02 08:21:55;;;;;;;26.75;11.60;;;;;;;;;;5108979;28;20023;-73
2022/01/02 08:24:21;;;;;;;19.90;9.50;;;;;;;;;;5109009;28;20024;-73
2022/01/02 08:26:47;;;;;;;20.15;10.45;;;;;;;;;;5109154;28;20042;-72
2022/01/02 08:29:14;;;;;;;19.23;8.32;;;;;;;;;;5112162;28;20020;-72
2022/01/02 08:31:40;;;;;;;19.77;8.60;;;;;;;;;;5093013;28;20077;-72
2022/01/02 08:34:07;;;;;;;21.33;10.13;;;;;;;;;;5109038;28;20031;-72
2022/01/02 08:36:33;;;;;;;36.28;19.45;;;;;;;;;;5108548;28;20032;-72
2022/01/02 08:38:59;;;;;;;28.10;14.57;;;;;;;;;;5109024;28;20032;-73
2022/01/02 08:41:26;;;;;;;31.60;17.30;;;;;;;;;;5110589;28;20404;-72
2022/01/02 08:43:52;;;;;;;33.47;18.38;;;;;;;;;;5112182;28;20019;-73
2022/01/02 08:46:19;;;;;;;42.92;22.88;;;;;;;;;;5116849;27;20039;-73
2022/01/02 08:48:45;;;;;;;16.48;7.75;;;;;;;;;;5120954;27;20027;-73
2022/01/02 08:51:12;;;;;;;11.40;6.55;;;;;;;;;;5112994;27;20033;-73
2022/01/02 08:53:38;;;;;;;19.60;11.57;;;;;;;;;;5109442;28;20019;-73
2022/01/02 08:56:05;;;;;;;22.98;12.32;;;;;;;;;;5116690;27;20023;-73
2022/01/02 08:58:31;;;;;;;70.38;34.05;;;;;;;;;;5113366;28;20962;-74
2022/01/02 09:00:59;;;;;;;39.83;18.65;;;;;;;;;;5113286;28;20498;-73
2022/01/02 09:03:26;;;;;;;14.50;8.57;;;;;;;;;;5112915;27;20504;-73
2022/01/02 09:05:52;;;;;;;16.75;10.43;;;;;;;;;;5109435;28;20020;-74
2022/01/02 09:08:18;;;;;;;20.98;11.43;;;;;;;;;;5113599;28;20062;-73
2022/01/02 09:10:45;;;;;;;31.02;15.63;;;;;;;;;;5113985;28;20020;-73
2022/01/02 09:13:11;;;;;;;19.05;11.43;;;;;;;;;;5113032;28;20034;-73
2022/01/02 09:15:37;;;;;;;18.65;10.00;;;;;;;;;;5113112;28;20024;-73
2022/01/02 09:18:05;;;;;;;17.75;10.57;;;;;;;;;;5112129;28;20023;-74
2022/01/02 09:20:32;;;;;;;15.32;9.45;;;;;;;;;;5110710;28;20031;-73
2022/01/02 09:22:58;;;;;;;22.60;11.60;;;;;;;;;;5116556;28;20502;-73
2022/01/02 09:25:24;;;;;;;18.73;11.82;;;;;;;;;;5113035;28;20405;-73
2022/01/02 09:27:51;;;;;;;14.27;8.30;;;;;;;;;;5112930;28;20034;-73
2022/01/02 09:30:18;;;;;;;10.35;6.70;;;;;;;;;;5113164;28;20026;-73
2022/01/02 09:32:44;;;;;;;11.45;7.45;;;;;;;;;;5108974;28;20512;-73
2022/01/02 09:35:11;;;;;;;15.38;8.40;;;;;;;;;;5115682;28;20036;-73
2022/01/02 09:37:38;;;;;;;19.00;9.70;;;;;;;;;;5114761;28;20027;-73
2022/01/02 09:40:07;;;;;;;18.60;10.48;;;;;;;;;;5113088;28;20024;-73
2022/01/02 09:42:34;;;;;;;19.95;10.25;;;;;;;;;;5112684;28;20038;-73
2022/01/02 09:45:00;;;;;;;16.70;8.77;;;;;;;;;;5111466;28;20028;-73
2022/01/02 09:47:27;;;;;;;116.65;46.15;;;;;;;;;;5111630;28;20042;-73
2022/01/02 09:49:53;;;;;;;43.90;19.63;;;;;;;;;;5109632;28;20023;-73
2022/01/02 09:52:20;;;;;;;15.70;8.70;;;;;;;;;;5108310;28;20037;-73
2022/01/02 09:54:46;;;;;;;13.32;8.38;;;;;;;;;;5108121;28;20045;-73
2022/01/02 09:57:13;;;;;;;15.57;8.63;;;;;;;;;;5108532;28;20032;-73
2022/01/02 09:59:40;;;;;;;18.83;9.65;;;;;;;;;;5093340;28;20471;-73
2022/01/02 10:02:06;;;;;;;61.95;32.63;;;;;;;;;;5111683;28;20042;-74
2022/01/02 10:04:40;;;;;;;18.75;10.00;;;;;;;;;;5107431;28;20020;-73
2022/01/02 10:07:07;;;;;;;14.20;8.15;;;;;;;;;;5107954;28;20044;-73
2022/01/02 10:09:38;;;;;;;12.45;7.70;;;;;;;;;;5108072;28;20036;-72
2022/01/02 10:12:25;;;;;;;11.70;7.50;;;;;;;;;;5108248;28;20027;-73
2022/01/02 10:15:07;;;;;;;11.27;7.78;;;;;;;;;;5093646;28;20034;-73
2022/01/02 10:17:51;;;;;;;14.63;8.40;;;;;;;;;;5108924;28;20034;-74
2022/01/02 10:20:18;;;;;;;17.20;10.23;;;;;;;;;;5108263;28;20035;-73
2022/01/02 10:23:03;;;;;;;18.55;10.90;;;;;;;;;;5112555;28;20026;-73
2022/01/02 10:25:38;;;;;;;19.95;12.88;;;;;;;;;;5111353;28;20022;-73
2022/01/02 10:28:20;;;;;;;18.25;11.63;;;;;;;;;;5111278;28;20027;-74
2022/01/02 10:30:50;;;;;;;15.35;10.40;;;;;;;;;;5111397;28;20018;-73
2022/01/02 10:33:16;;;;;;;16.48;10.20;;;;;;;;;;5110819;28;20026;-73
2022/01/02 10:35:43;;;;;;;16.05;10.20;;;;;;;;;;5111649;28;20030;-74
2022/01/02 10:38:16;;;;;;;14.60;10.00;;;;;;;;;;5114893;28;20486;-73
2022/01/02 10:40:43;;;;;;;19.25;11.23;;;;;;;;;;5113572;28;20057;-73
2022/01/02 10:43:23;;;;;;;16.33;10.00;;;;;;;;;;5111266;28;20396;-73
2022/01/02 10:45:50;;;;;;;15.85;10.43;;;;;;;;;;5115109;27;20047;-73
2022/01/02 10:48:18;;;;;;;15.48;10.05;;;;;;;;;;5126532;27;20064;-73
2022/01/02 10:50:59;;;;;;;18.65;9.00;;;;;;;;;;5111818;27;20016;-73
2022/01/02 10:53:25;;;;;;;13.43;7.95;;;;;;;;;;5115499;27;20478;-74
2022/01/02 10:55:52;;;;;;;15.60;7.20;;;;;;;;;;5098804;28;20031;-73
2022/01/02 10:58:19;;;;;;;9.75;6.45;;;;;;;;;;5115819;27;20030;-73
2022/01/02 11:00:45;;;;;;;11.02;6.25;;;;;;;;;;5115086;27;20029;-74
2022/01/02 11:03:16;;;;;;;10.20;7.03;;;;;;;;;;5114041;27;20489;-73
2022/01/02 11:05:42;;;;;;;;;;;;;;;;;;5077529;27;20038;-74
2022/01/02 11:08:09;;;;;;;9.52;5.53;;;;;;;;;;5118444;27;20416;-73
2022/01/02 11:10:35;;;;;;;11.70;6.63;;;;;;;;;;5109431;28;20015;-74
2022/01/02 11:13:05;;;;;;;13.63;7.20;;;;;;;;;;5115275;27;20375;-73
2022/01/02 11:15:32;;;;;;;10.40;6.00;;;;;;;;;;5114949;27;20489;-73
2022/01/02 11:17:59;;;;;;;12.50;5.93;;;;;;;;;;5114369;27;20020;-74
2022/01/02 11:20:27;;;;;;;12.80;6.20;;;;;;;;;;5115075;27;20020;-74
2022/01/02 11:23:03;;;;;;;14.48;6.57;;;;;;;;;;5098682;28;20042;-73
2022/01/02 11:25:52;;;;;;;9.27;6.32;;;;;;;;;;5115302;27;20489;-73
2022/01/02 11:28:21;;;;;;;10.98;5.90;;;;;;;;;;5096818;28;20073;-72
2022/01/02 11:30:50;;;;;;;8.05;4.82;;;;;;;;;;5114701;27;20461;-73
2022/01/02 11:33:19;;;;;;;9.68;5.30;;;;;;;;;;5114476;27;20083;-73
2022/01/02 11:35:47;;;;;;;11.23;7.05;;;;;;;;;;5111046;27;20020;-73
2022/01/02 11:38:15;;;;;;;11.63;6.05;;;;;;;;;;5098903;28;20044;-73
2022/01/02 11:40:44;;;;;;;11.52;6.85;;;;;;;;;;5115417;27;20026;-74
2022/01/02 11:43:10;;;;;;;14.90;7.60;;;;;;;;;;5114790;27;20038;-74
2022/01/02 11:45:40;;;;;;;11.55;6.68;;;;;;;;;;5113968;27;20056;-73
2022/01/02 11:48:29;;;;;;;10.18;6.70;;;;;;;;;;5109799;28;20524;-73
2022/01/02 11:50:56;;;;;;;10.55;7.70;;;;;;;;;;5096020;28;20032;-73
2022/01/02 11:53:23;;;;;;;12.88;6.88;;;;;;;;;;5111926;28;20383;-73
2022/01/02 11:55:51;;;;;;;14.93;6.85;;;;;;;;;;5110771;28;20034;-73
2022/01/02 11:58:36;;;;;;;12.95;7.93;;;;;;;;;;5092670;28;20397;-73
2022/01/02 12:01:02;;;;;;;12.35;7.50;;;;;;;;;;5109589;28;20019;-73
2022/01/02 12:03:44;;;;;;;15.60;9.52;;;;;;;;;;5109473;28;20027;-73
2022/01/02 12:06:14;;;;;;;16.55;10.25;;;;;;;;;;5109680;28;20027;-73
2022/01/02 12:08:41;;;;;;;15.57;10.02;;;;;;;;;;5093599;28;20478;-73
2022/01/02 12:11:42;;;;;;;19.90;12.40;;;;;;;;;;5112822;28;20036;-73
2022/01/02 12:14:17;;;;;;;17.65;10.55;;;;;;;;;;4995028;28;20081;-73
2022/01/02 12:16:49;;;;;;;20.10;12.55;;;;;;;;;;4995965;28;20043;-71
2022/01/02 12:19:16;;;;;;;49.30;29.80;;;;;;;;;;4995885;28;20026;-73
2022/01/02 12:22:02;;;;;;;15.95;10.20;;;;;;;;;;4996025;28;20129;-73
2022/01/02 12:24:30;;;;;;;14.80;10.10;;;;;;;;;;4980020;28;20455;-73
2022/01/02 12:27:07;;;;;;;13.77;9.45;;;;;;;;;;5007007;28;20050;-73
2022/01/02 12:29:33;;;;;;;13.90;9.38;;;;;;;;;;4992169;28;20042;-73
2022/01/02 12:32:01;;;;;;;12.65;8.45;;;;;;;;;;4994952;28;20022;-74
2022/01/02 12:34:30;;;;;;;13.38;8.88;;;;;;;;;;4996168;28;20541;-73
2022/01/02 12:36:58;;;;;;;13.80;9.15;;;;;;;;;;4992891;28;20489;-73
2022/01/02 12:39:29;;;;;;;15.00;9.38;;;;;;;;;;4995855;28;20034;-73
2022/01/02 12:42:00;;;;;;;14.00;9.43;;;;;;;;;;4993462;28;20030;-73
2022/01/02 12:44:28;;;;;;;12.77;8.48;;;;;;;;;;4991888;28;20040;-73
2022/01/02 12:46:55;;;;;;;17.38;10.88;;;;;;;;;;5007656;28;20046;-73
2022/01/02 12:49:29;;;;;;;17.60;10.90;;;;;;;;;;5111612;27;20037;-73
2022/01/02 12:51:56;;;;;;;13.32;9.35;;;;;;;;;;5113250;27;20016;-73
2022/01/02 12:54:24;;;;;;;12.93;8.43;;;;;;;;;;5113698;27;20031;-73
2022/01/02 12:56:52;;;;;;;12.32;7.05;;;;;;;;;;5109620;28;20475;-73
2022/01/02 12:59:24;;;;;;;10.57;6.68;;;;;;;;;;5114394;28;20020;-73
2022/01/02 13:02:07;;;;;;;11.98;6.80;;;;;;;;;;5125037;27;20030;-73
2022/01/02 13:04:33;;;;;;;10.13;6.80;;;;;;;;;;5095518;28;20032;-71
2022/01/02 13:07:01;;;;;;;8.40;6.22;;;;;;;;;;5113204;28;20043;-73
2022/01/02 13:09:28;;;;;;;10.38;5.85;;;;;;;;;;5113252;28;20025;-73
2022/01/02 13:11:54;;;;;;;7.90;5.70;;;;;;;;;;5110321;28;20023;-73
2022/01/02 13:14:30;;;;;;;9.70;6.32;;;;;;;;;;5113931;28;20030;-73
2022/01/02 13:16:57;;;;;;;8.38;6.25;;;;;;;;;;5115088;28;20030;-73
2022/01/02 13:19:23;;;;;;;9.30;5.03;;;;;;;;;;5112938;28;20067;-73
2022/01/02 13:21:50;;;;;;;8.95;5.60;;;;;;;;;;5107578;28;20053;-74
2022/01/02 13:24:23;;;;;;;7.03;5.25;;;;;;;;;;5113220;28;20039;-73
2022/01/02 13:26:50;;;;;;;5.93;4.10;;;;;;;;;;5109129;28;20034;-73
2022/01/02 13:29:22;;;;;;;6.03;4.32;;;;;;;;;;5114944;28;20028;-73
2022/01/02 13:31:49;;;;;;;8.63;4.07;;;;;;;;;;5115909;28;20393;-73
2022/01/02 13:34:26;;;;;;;7.57;3.95;;;;;;;;;;5113076;28;20022;-73
2022/01/02 13:37:02;;;;;;;5.72;3.40;;;;;;;;;;5112777;28;20057;-73
2022/01/02 13:40:00;;;;;;;6.90;4.05;;;;;;;;;;5112811;28;20447;-73
2022/01/02 13:42:40;;;;;;;5.38;3.33;;;;;;;;;;5048107;28;20555;-73
2022/01/02 13:45:26;;;;;;;9.13;5.60;;;;;;;;;;5031919;28;20041;-73
2022/01/02 13:47:53;;;;;;;26.63;14.32;;;;;;;;;;5034483;28;20043;-73
2022/01/02 13:50:31;;;;;;;11.38;6.85;;;;;;;;;;5048825;28;20035;-73
2022/01/02 13:53:02;;;;;;;8.23;5.63;;;;;;;;;;5047926;28;20047;-73
2022/01/02 13:55:31;;;;;;;6.78;4.80;;;;;;;;;;5049255;28;20036;-73
2022/01/02 13:57:57;;;;;;;6.70;4.45;;;;;;;;;;5052473;28;20086;-73
2022/01/02 14:00:25;;;;;;;7.63;4.00;;;;;;;;;;5052449;28;20023;-73
2022/01/02 14:02:52;;;;;;;5.22;3.75;;;;;;;;;;5052282;28;20055;-73
2022/01/02 14:05:21;;;;;;;8.88;4.40;;;;;;;;;;5052218;28;20041;-73
2022/01/02 14:07:48;;;;;;;9.65;5.38;;;;;;;;;;5051949;28;20495;-74
2022/01/02 14:10:16;;;;;;;6.25;4.07;;;;;;;;;;5051856;28;20029;-73
2022/01/02 14:12:42;;;;;;;6.28;4.07;;;;;;;;;;5052228;28;20041;-73
2022/01/02 14:15:27;;;;;;;7.53;4.43;;;;;;;;;;5052170;28;20074;-73
2022/01/02 14:17:53;;;;;;;7.93;4.55;;;;;;;;;;5073528;28;20382;-73
2022/01/02 14:20:23;;;;;;;11.13;5.55;;;;;;;;;;5114544;28;20031;-73
2022/01/02 14:22:50;;;;;;;8.05;5.15;;;;;;;;;;5112688;28;20050;-73
2022/01/02 14:25:17;;;;;;;26.88;16.00;;;;;;;;;;5111306;28;20034;-73
2022/01/02 14:27:45;;;;;;;23.48;14.00;;;;;;;;;;5111669;28;20041;-73
2022/01/02 14:30:12;;;;;;;13.20;8.18;;;;;;;;;;5111479;28;20019;-73
2022/01/02 14:32:39;;;;;;;13.00;7.57;;;;;;;;;;5112792;28;20159;-73
2022/01/02 14:35:06;;;;;;;17.00;8.35;;;;;;;;;;5114955;28;20384;-73
2022/01/02 14:37:32;;;;;;;23.05;9.85;;;;;;;;;;5111453;28;20012;-73
2022/01/02 14:39:59;;;;;;;18.25;9.55;;;;;;;;;;5110885;28;20420;-74
2022/01/02 14:42:26;;;;;;;15.77;8.27;;;;;;;;;;5111240;28;20019;-73
2022/01/02 14:44:53;;;;;;;13.68;7.10;;;;;;;;;;5111372;28;20478;-73
2022/01/02 14:47:20;;;;;;;9.50;5.00;;;;;;;;;;5111830;27;20045;-73
2022/01/02 14:49:46;;;;;;;9.38;5.13;;;;;;;;;;5133225;27;20083;-74